Time;durP1;ratioP1;P1;durP2;ratioP2;P2;SDS_P1;SDS_P2;PMS_P1;PMS_P2;Temp;Humidity;BMP_temperature;BMP_pressure;BME280_temperature;BME280_humidity;BME280_pressure;Samples;Min_cycle;Max_cycle;Signal;HPM_P1;HPM_P2
2022/11/05 00:09:28;;;;;;;13.10;8.27;;;;;;;7.45;100.00;100189.53;5022959;28;20200;-73
2022/11/05 00:17:10;;;;;;;13.27;8.60;;;;;;;7.45;100.00;100220.66;5015515;28;20203;-73
2022/11/05 00:19:38;;;;;;;15.43;7.77;;;;;;;7.44;100.00;100219.81;5019636;28;20810;-73
2022/11/05 00:27:34;;;;;;;11.17;7.07;;;;;;;7.45;100.00;100236.22;5019753;28;20203;-73
2022/11/05 00:30:05;;;;;;;10.83;7.27;;;;;;;7.45;100.00;100231.03;5021249;28;20217;-73
2022/11/05 00:32:32;;;;;;;11.13;7.50;;;;;;;7.46;100.00;100238.78;5017525;28;20290;-73
2022/11/05 00:34:59;;;;;;;11.73;7.63;;;;;;;7.46;100.00;100227.53;5017230;28;20222;-73
2022/11/05 00:37:27;;;;;;;10.47;6.47;;;;;;;7.44;100.00;100237.09;5011898;28;20200;-73
2022/11/05 00:39:53;;;;;;;10.83;6.90;;;;;;;7.44;100.00;100247.47;5023705;28;20230;-73
2022/11/05 00:45:06;;;;;;;9.00;7.10;;;;;;;7.46;100.00;100248.28;5024367;28;20214;-73
2022/11/05 00:50:19;;;;;;;11.03;7.50;;;;;;;7.46;100.00;100258.66;5015364;28;20221;-73
2022/11/05 00:52:56;;;;;;;14.73;7.80;;;;;;;7.45;100.00;100260.41;5015581;28;20870;-73
2022/11/05 00:55:24;;;;;;;11.70;7.50;;;;;;;7.47;100.00;100257.78;5022489;28;20234;-73
2022/11/05 00:57:51;;;;;;;11.13;7.00;;;;;;;7.48;100.00;100262.09;5020743;28;20733;-73
2022/11/05 01:00:19;;;;;;;10.83;6.60;;;;;;;7.47;100.00;100266.41;5021915;28;20242;-73
2022/11/05 01:02:45;;;;;;;11.13;7.30;;;;;;;7.47;100.00;100271.59;5023444;28;20545;-73
2022/11/05 01:05:12;;;;;;;11.83;7.23;;;;;;;7.48;100.00;100269.88;5019985;28;20226;-73
2022/11/05 01:07:38;;;;;;;11.63;7.97;;;;;;;7.47;100.00;100266.41;5021630;28;20211;-73
2022/11/05 01:10:06;;;;;;;13.33;7.83;;;;;;;7.50;100.00;100268.13;5025400;28;20226;-73
2022/11/05 01:12:32;;;;;;;12.80;7.90;;;;;;;7.49;100.00;100277.66;5019627;28;20195;-73
2022/11/05 01:15:00;;;;;;;13.20;8.23;;;;;;;7.48;100.00;100280.25;5022437;28;20563;-73
2022/11/05 01:17:28;;;;;;;10.53;7.50;;;;;;;7.49;100.00;100276.75;5018534;28;20744;-73
2022/11/05 01:19:54;;;;;;;12.23;7.20;;;;;;;7.50;100.00;100281.94;5019587;28;20230;-73
2022/11/05 01:22:21;;;;;;;12.07;8.00;;;;;;;7.51;100.00;100286.25;5020545;28;20210;-73
2022/11/05 01:24:47;;;;;;;11.20;7.77;;;;;;;7.51;100.00;100287.97;5023129;28;20635;-73
2022/11/05 01:27:13;;;;;;;11.80;7.73;;;;;;;7.51;100.00;100282.78;5019983;28;20693;-73
2022/11/05 01:29:40;;;;;;;12.00;7.50;;;;;;;7.51;100.00;100286.25;5025366;28;20217;-73
2022/11/05 01:32:07;;;;;;;12.67;7.47;;;;;;;7.52;100.00;100284.50;5022855;28;20225;-73
2022/11/05 01:34:34;;;;;;;13.23;6.77;;;;;;;7.51;100.00;100285.38;5015230;28;20211;-73
2022/11/05 01:37:01;;;;;;;8.87;6.00;;;;;;;7.51;100.00;100287.97;5023731;28;20663;-73
2022/11/05 01:39:27;;;;;;;9.17;6.50;;;;;;;7.51;100.00;100296.63;5019544;28;20592;-73
2022/11/05 01:41:53;;;;;;;10.80;7.10;;;;;;;7.52;100.00;100293.13;5017094;28;20621;-73
2022/11/05 01:44:51;;;;;;;9.47;6.50;;;;;;;7.53;100.00;100286.22;5018182;28;20213;-73
2022/11/05 01:47:27;;;;;;;9.50;6.23;;;;;;;7.52;100.00;100287.94;5022160;28;20214;-73
2022/11/05 01:50:00;;;;;;;12.07;6.83;;;;;;;7.52;100.00;100293.13;5022912;28;20580;-73
2022/11/05 01:52:28;;;;;;;9.57;6.63;;;;;;;7.51;100.00;100294.03;5015775;28;20298;-73
2022/11/05 01:54:55;;;;;;;10.23;6.77;;;;;;;7.52;100.00;100293.13;5016129;28;20207;-73
2022/11/05 01:57:23;;;;;;;9.57;6.20;;;;;;;7.53;100.00;100297.44;5021199;28;20202;-73
2022/11/05 01:59:54;;;;;;;11.33;7.03;;;;;;;7.53;100.00;100296.59;5026243;28;20239;-73
2022/11/05 02:02:22;;;;;;;10.57;7.00;;;;;;;7.53;100.00;100294.84;5025168;28;20217;-73
2022/11/05 02:04:53;;;;;;;14.90;6.93;;;;;;;7.53;100.00;100301.78;5019158;28;20200;-73
2022/11/05 02:07:25;;;;;;;10.90;7.60;;;;;;;7.54;100.00;100306.91;5023868;28;20233;-73
2022/11/05 02:09:56;;;;;;;10.70;7.03;;;;;;;7.56;100.00;100306.91;5023547;28;20740;-73
2022/11/05 02:12:23;;;;;;;10.40;6.63;;;;;;;7.57;100.00;100309.47;5019067;28;20215;-73
2022/11/05 02:14:50;;;;;;;10.40;7.63;;;;;;;7.57;100.00;100314.66;5025802;28;20202;-73
2022/11/05 02:17:29;;;;;;;13.87;6.97;;;;;;;7.57;100.00;100313.81;5017692;28;20355;-73
2022/11/05 02:20:18;;;;;;;11.77;7.13;;;;;;;7.58;100.00;100326.75;5025837;28;20219;-73
2022/11/05 02:23:10;;;;;;;11.37;7.30;;;;;;;7.57;100.00;100324.19;5019180;28;20226;-73
2022/11/05 02:26:16;;;;;;;11.80;6.90;;;;;;;7.57;100.00;100324.19;5024879;28;20223;-73
2022/11/05 02:29:06;;;;;;;15.63;8.20;;;;;;;7.58;100.00;100331.94;5017644;28;20235;-71
2022/11/05 02:31:41;;;;;;;10.77;7.23;;;;;;;7.59;100.00;100337.97;5026900;28;20219;-73
2022/11/05 02:34:13;;;;;;;12.60;7.67;;;;;;;7.56;100.00;100327.66;5028901;28;20205;-75
2022/11/05 02:36:46;;;;;;;13.13;8.00;;;;;;;7.58;100.00;100325.88;5035330;28;20208;-72
2022/11/05 02:39:27;;;;;;;11.13;7.63;;;;;;;7.57;100.00;100335.41;5022635;28;20220;-74
2022/11/05 02:42:12;;;;;;;11.23;7.23;;;;;;;7.57;100.00;100339.75;5024560;28;20204;-74
2022/11/05 02:44:44;;;;;;;14.83;8.33;;;;;;;7.57;100.00;100345.78;5028837;28;20714;-74
2022/11/05 02:47:23;;;;;;;15.17;7.87;;;;;;;7.58;100.00;100351.81;5022568;28;20223;-71
2022/11/05 02:49:57;;;;;;;10.37;7.33;;;;;;;7.58;100.00;100357.00;5034514;28;20246;-73
2022/11/05 02:52:32;;;;;;;11.37;7.93;;;;;;;7.57;100.00;100368.28;5017217;28;20207;-74
2022/11/05 02:55:05;;;;;;;10.10;7.13;;;;;;;7.57;100.00;100370.88;5023950;28;20203;-73
2022/11/05 02:57:34;;;;;;;10.80;7.53;;;;;;;7.56;100.00;100367.44;5026341;28;20194;-74
2022/11/05 03:00:02;;;;;;;10.23;6.67;;;;;;;7.56;100.00;100375.22;5018104;28;20264;-73
2022/11/05 03:02:30;;;;;;;10.33;7.20;;;;;;;7.56;100.00;100371.75;5021944;28;20227;-73
2022/11/05 03:04:57;;;;;;;11.10;6.80;;;;;;;7.55;100.00;100367.47;5026091;28;20202;-73
2022/11/05 03:07:43;;;;;;;9.60;6.77;;;;;;;7.51;100.00;100371.84;5031460;28;20711;-73
2022/11/05 03:10:37;;;;;;;11.20;6.00;;;;;;;7.51;100.00;100363.19;5021470;28;20219;-73
2022/11/05 03:13:15;;;;;;;7.60;5.13;;;;;;;7.51;100.00;100371.84;5019689;28;20212;-73
2022/11/05 03:15:50;;;;;;;9.93;5.93;;;;;;;7.49;100.00;100370.16;5022077;28;20931;-73
2022/11/05 03:18:25;;;;;;;7.13;5.47;;;;;;;7.47;100.00;100374.53;5018210;28;20227;-73
2022/11/05 03:20:58;;;;;;;7.63;5.30;;;;;;;7.47;100.00;100382.31;5024836;28;20197;-73
2022/11/05 03:23:31;;;;;;;7.37;5.40;;;;;;;7.46;100.00;100381.47;5022263;28;20207;-73
2022/11/05 03:26:05;;;;;;;6.73;5.20;;;;;;;7.45;100.00;100386.66;5027797;28;20224;-72
2022/11/05 03:28:38;;;;;;;8.00;5.10;;;;;;;7.45;100.00;100400.47;5020333;28;20215;-74
2022/11/05 03:31:07;;;;;;;7.37;4.93;;;;;;;7.44;100.00;100403.09;5017333;28;20211;-76
2022/11/05 03:33:38;;;;;;;6.60;5.40;;;;;;;7.45;100.00;100412.59;5026746;28;20242;-72
2022/11/05 03:36:12;;;;;;;10.53;5.77;;;;;;;7.43;100.00;100416.97;5025392;28;20198;-77
2022/11/05 03:38:43;;;;;;;7.90;5.37;;;;;;;7.42;100.00;100425.63;5022286;28;20220;-74
2022/11/05 03:41:13;;;;;;;7.37;4.83;;;;;;;7.39;100.00;100422.19;5022560;28;20631;-73
2022/11/05 03:43:44;;;;;;;7.40;5.67;;;;;;;7.38;100.00;100428.25;5025627;28;20630;-74
2022/11/05 03:46:16;;;;;;;6.90;4.90;;;;;;;7.38;100.00;100430.84;5021071;28;20222;-73
2022/11/05 03:48:48;;;;;;;6.13;4.70;;;;;;;7.36;100.00;100430.03;5017191;28;20220;-74
2022/11/05 03:51:23;;;;;;;6.77;4.73;;;;;;;7.36;100.00;100426.59;5021722;28;20567;-73
2022/11/05 03:53:54;;;;;;;7.00;5.17;;;;;;;7.35;100.00;100436.13;5027845;28;20205;-74
2022/11/05 03:56:27;;;;;;;8.07;5.23;;;;;;;7.32;100.00;100432.72;5020752;28;20208;-76
2022/11/05 03:58:55;;;;;;;5.33;4.27;;;;;;;7.33;100.00;100444.78;5023038;28;20241;-74
2022/11/05 04:01:21;;;;;;;8.23;4.53;;;;;;;7.32;100.00;100440.50;5023969;28;20204;-74
2022/11/05 04:03:49;;;;;;;8.50;5.03;;;;;;;7.30;100.00;100448.28;5019944;28;20203;-74
2022/11/05 04:14:28;;;;;;;5.90;4.50;;;;;;;7.27;100.00;100448.34;5013447;28;20207;-74
2022/11/05 04:17:05;;;;;;;6.43;4.63;;;;;;;7.26;100.00;100444.00;5024970;28;20194;-74
2022/11/05 04:25:00;;;;;;;6.40;4.10;;;;;;;7.25;100.00;100472.59;5016355;28;20523;-74
2022/11/05 04:27:27;;;;;;;6.57;4.20;;;;;;;7.25;100.00;100457.03;5019245;28;20222;-74
2022/11/05 04:32:38;;;;;;;6.53;4.00;;;;;;;7.26;100.00;100467.34;5018815;28;20202;-74
2022/11/05 04:35:06;;;;;;;5.57;3.90;;;;;;;7.27;100.00;100474.25;5024228;28;20491;-74
2022/11/05 04:37:32;;;;;;;6.60;4.67;;;;;;;7.29;100.00;100469.06;5022326;28;20199;-74
2022/11/05 04:39:58;;;;;;;8.23;5.57;;;;;;;7.30;100.00;100470.75;5017988;28;20226;-74
2022/11/05 04:42:25;;;;;;;7.87;5.43;;;;;;;7.31;100.00;100472.47;5017931;28;20217;-74
2022/11/05 04:44:51;;;;;;;8.03;5.80;;;;;;;7.31;100.00;100480.25;5017062;28;20672;-74
2022/11/05 04:47:18;;;;;;;10.07;6.37;;;;;;;7.31;100.00;100482.84;5024018;28;20220;-74
2022/11/05 04:49:44;;;;;;;10.80;6.37;;;;;;;7.33;100.00;100491.47;5018778;28;20238;-74
2022/11/05 04:52:12;;;;;;;9.53;6.10;;;;;;;7.34;100.00;100496.63;5020403;28;20728;-74
2022/11/05 04:54:38;;;;;;;9.83;6.00;;;;;;;7.35;100.00;100487.09;5021693;28;20213;-74
2022/11/05 04:57:04;;;;;;;9.77;6.03;;;;;;;7.36;100.00;100499.22;5017708;28;20209;-74
2022/11/05 04:59:31;;;;;;;9.97;6.50;;;;;;;7.35;100.00;100502.66;5014033;28;20568;-74
2022/11/05 05:01:57;;;;;;;9.87;6.00;;;;;;;7.36;100.00;100499.22;5011186;28;20194;-74
2022/11/05 05:04:23;;;;;;;11.80;6.50;;;;;;;7.37;100.00;100499.19;5020891;28;20228;-75
2022/11/05 05:06:49;;;;;;;10.67;6.47;;;;;;;7.37;100.00;100500.94;5019975;28;20216;-72
2022/11/05 05:09:17;;;;;;;15.17;6.03;;;;;;;7.37;100.00;100511.31;5019397;28;20677;-76
2022/11/05 05:11:44;;;;;;;12.63;7.10;;;;;;;7.38;100.00;100515.59;5022611;28;20726;-73
2022/11/05 05:14:10;;;;;;;8.57;5.83;;;;;;;7.38;100.00;100511.25;5020954;28;20663;-75
2022/11/05 05:16:37;;;;;;;11.63;6.67;;;;;;;7.37;100.00;100512.16;5013087;28;20575;-73
2022/11/05 05:19:04;;;;;;;14.83;6.60;;;;;;;7.37;100.00;100519.09;5016607;28;20623;-74
2022/11/05 05:21:39;;;;;;;10.67;6.57;;;;;;;7.36;100.00;100517.38;5018455;28;21304;-73
2022/11/05 05:24:07;;;;;;;10.93;6.47;;;;;;;7.35;100.00;100523.41;5020486;28;20214;-73
2022/11/05 05:26:36;;;;;;;12.27;6.13;;;;;;;7.34;100.00;100527.75;5013790;28;20516;-74
2022/11/05 05:29:02;;;;;;;11.67;7.70;;;;;;;7.34;100.00;100532.09;5017758;28;21144;-74
2022/11/05 05:31:29;;;;;;;10.77;6.33;;;;;;;7.33;100.00;100533.81;5025914;28;20201;-74
2022/11/05 05:33:55;;;;;;;10.83;7.07;;;;;;;7.30;100.00;100544.25;5023074;28;20676;-74
2022/11/05 05:36:23;;;;;;;14.60;7.07;;;;;;;7.31;100.00;100545.09;5023564;28;20206;-73
2022/11/05 05:38:49;;;;;;;10.67;7.00;;;;;;;7.28;100.00;100551.19;5023651;28;20220;-73
2022/11/05 05:41:16;;;;;;;10.67;6.80;;;;;;;7.26;100.00;100554.69;5023013;28;20221;-73
2022/11/05 05:43:44;;;;;;;14.40;7.00;;;;;;;7.23;100.00;100567.69;5023723;28;20198;-74
2022/11/05 05:46:13;;;;;;;10.20;6.37;;;;;;;7.22;100.00;100569.41;5029113;28;20292;-74
2022/11/05 05:48:40;;;;;;;10.80;6.50;;;;;;;7.21;100.00;100578.06;5018466;28;20534;-73
2022/11/05 05:51:09;;;;;;;10.47;5.97;;;;;;;7.17;100.00;100579.00;5018933;28;20211;-75
2022/11/05 05:53:36;;;;;;;11.47;6.60;;;;;;;7.14;100.00;100582.50;5028880;28;20202;-75
2022/11/05 05:56:03;;;;;;;10.53;6.30;;;;;;;7.10;100.00;100573.03;5028155;28;20210;-74
2022/11/05 05:58:33;;;;;;;10.83;6.10;;;;;;;7.11;100.00;100576.50;5024369;28;20232;-72
2022/11/05 06:01:02;;;;;;;8.87;6.23;;;;;;;7.09;100.00;100575.63;5031711;28;20631;-73
2022/11/05 06:03:29;;;;;;;13.67;7.20;;;;;;;7.07;100.00;100572.19;5017965;28;20204;-72
2022/11/05 06:05:59;;;;;;;8.60;5.93;;;;;;;7.04;100.00;100569.69;5026718;28;20212;-76
2022/11/05 06:08:26;;;;;;;11.10;6.47;;;;;;;7.00;100.00;100580.06;5019523;28;20230;-74
2022/11/05 06:10:52;;;;;;;8.77;5.77;;;;;;;6.96;100.00;100573.19;5021635;28;20205;-74
2022/11/05 06:13:18;;;;;;;11.70;6.07;;;;;;;6.94;100.00;100584.47;5020766;28;20202;-73
2022/11/05 06:15:45;;;;;;;12.33;6.80;;;;;;;6.92;100.00;100588.81;5019093;28;20204;-72
2022/11/05 06:18:12;;;;;;;9.53;6.03;;;;;;;6.89;100.00;100589.69;5021876;28;20209;-74
2022/11/05 06:20:39;;;;;;;9.30;6.23;;;;;;;6.90;100.00;100594.00;5024973;28;20192;-73
2022/11/05 06:23:06;;;;;;;12.57;7.03;;;;;;;6.88;100.00;100592.28;5026877;28;20470;-73
2022/11/05 06:25:32;;;;;;;10.53;6.57;;;;;;;6.88;100.00;100592.28;5018055;28;20209;-74
2022/11/05 06:27:59;;;;;;;9.83;6.80;;;;;;;6.86;100.00;100591.47;5022370;28;20217;-73
2022/11/05 06:30:25;;;;;;;10.47;6.40;;;;;;;6.85;100.00;100593.19;5023197;28;20198;-72
2022/11/05 06:32:52;;;;;;;10.73;6.37;;;;;;;6.86;100.00;100591.47;5027634;28;20205;-72
2022/11/05 06:35:20;;;;;;;9.83;5.80;;;;;;;6.86;100.00;100601.81;5025807;28;20260;-74
2022/11/05 06:37:46;;;;;;;12.87;6.70;;;;;;;6.86;100.00;100609.59;5018977;28;20208;-73
2022/11/05 06:40:12;;;;;;;14.07;7.37;;;;;;;6.87;100.00;100609.59;5022980;28;20228;-72
2022/11/05 06:42:39;;;;;;;11.27;6.30;;;;;;;6.88;100.00;100619.09;5022619;28;20219;-72
2022/11/05 06:45:06;;;;;;;10.43;6.73;;;;;;;6.89;100.00;100622.53;5023875;28;20215;-76
2022/11/05 06:47:33;;;;;;;10.73;5.67;;;;;;;6.90;100.00;100621.69;5024169;28;20360;-73
2022/11/05 06:49:59;;;;;;;17.87;6.70;;;;;;;6.90;100.00;100632.03;5021655;28;20224;-74
2022/11/05 06:52:30;;;;;;;9.73;5.90;;;;;;;6.91;100.00;100631.16;5021772;28;20592;-74
2022/11/05 06:54:56;;;;;;;13.63;6.27;;;;;;;6.90;100.00;100632.91;5024412;28;20258;-72
2022/11/05 06:57:22;;;;;;;10.17;5.93;;;;;;;6.91;100.00;100634.63;5029547;28;20197;-73
2022/11/05 06:59:49;;;;;;;14.30;6.17;;;;;;;6.93;100.00;100632.88;5027637;28;20217;-73
2022/11/05 07:02:17;;;;;;;11.37;5.47;;;;;;;6.97;100.00;100634.53;5024535;28;20215;-73
2022/11/05 07:04:43;;;;;;;10.43;5.57;;;;;;;7.01;100.00;100640.53;5023357;28;20312;-74
2022/11/05 07:07:09;;;;;;;9.57;5.37;;;;;;;7.05;100.00;100651.75;5024825;28;20220;-73
2022/11/05 07:09:41;;;;;;;8.87;5.67;;;;;;;7.07;100.00;100656.06;5029688;28;20225;-76
2022/11/05 07:12:08;;;;;;;11.13;5.67;;;;;;;7.09;100.00;100656.88;5024876;28;20201;-72
2022/11/05 07:14:34;;;;;;;15.40;5.90;;;;;;;7.09;100.00;100664.66;5016654;28;20206;-73
2022/11/05 07:17:00;;;;;;;12.60;6.57;;;;;;;7.12;100.00;100669.78;5021187;28;20257;-73
2022/11/05 07:19:27;;;;;;;10.80;6.30;;;;;;;7.14;100.00;100673.25;5026657;28;20217;-75
2022/11/05 07:21:53;;;;;;;10.13;5.50;;;;;;;7.17;100.00;100677.53;5025855;28;20232;-75
2022/11/05 07:24:19;;;;;;;11.43;5.50;;;;;;;7.18;100.00;100676.66;5018487;28;20202;-72
2022/11/05 07:26:47;;;;;;;15.93;6.53;;;;;;;7.19;100.00;100676.66;5026357;28;20206;-72
2022/11/05 07:29:14;;;;;;;12.63;5.73;;;;;;;7.24;100.00;100684.38;5021992;28;20227;-72
2022/11/05 07:31:40;;;;;;;13.37;5.40;;;;;;;7.26;100.00;100689.53;5022838;28;20208;-72
2022/11/05 07:34:07;;;;;;;9.83;6.27;;;;;;;7.28;100.00;100699.03;5022955;28;20209;-74
2022/11/05 07:36:33;;;;;;;13.20;5.60;;;;;;;7.31;100.00;100701.56;5019293;28;20707;-73
2022/11/05 07:38:59;;;;;;;10.37;5.33;;;;;;;7.30;100.00;100704.19;5016955;28;20607;-73
2022/11/05 07:41:26;;;;;;;11.27;6.07;;;;;;;7.30;100.00;100709.38;5021311;28;20213;-73
2022/11/05 07:43:53;;;;;;;16.30;6.23;;;;;;;7.31;100.00;100719.72;5020493;28;20206;-73
2022/11/05 07:46:20;;;;;;;8.23;5.50;;;;;;;7.34;100.00;100716.25;5023580;28;20208;-73
2022/11/05 07:48:46;;;;;;;10.90;6.13;;;;;;;7.36;100.00;100725.72;5025869;28;20235;-73
2022/11/05 07:51:12;;;;;;;11.03;5.40;;;;;;;7.41;100.00;100724.84;5018874;28;20256;-73
2022/11/05 07:53:39;;;;;;;9.80;5.10;;;;;;;7.43;100.00;100730.84;5019829;28;20201;-73
2022/11/05 07:56:05;;;;;;;10.17;6.20;;;;;;;7.45;100.00;100721.31;5024806;28;20597;-72
2022/11/05 07:58:34;;;;;;;15.43;5.87;;;;;;;7.49;100.00;100734.25;5015318;28;20214;-74
2022/11/05 08:01:01;;;;;;;10.97;5.93;;;;;;;7.51;100.00;100735.09;5022240;28;20245;-74
2022/11/05 08:03:28;;;;;;;9.27;5.53;;;;;;;7.53;100.00;100740.25;5017424;28;20214;-73
2022/11/05 08:05:54;;;;;;;14.70;6.57;;;;;;;7.59;100.00;100743.63;5017223;28;20210;-75
2022/11/05 08:08:21;;;;;;;11.47;5.33;;;;;;;7.63;100.00;100738.41;5017422;28;20222;-74
2022/11/05 08:10:48;;;;;;;12.13;6.43;;;;;;;7.65;100.00;100737.50;5016439;28;20206;-73
2022/11/05 08:13:16;;;;;;;10.53;6.07;;;;;;;7.73;100.00;100734.81;5017604;28;20780;-74
2022/11/05 08:15:43;;;;;;;10.77;6.03;;;;;;;7.74;100.00;100744.34;5019809;28;20195;-73
2022/11/05 08:18:13;;;;;;;16.90;6.37;;;;;;;7.67;100.00;100743.53;5018313;28;20199;-72
2022/11/05 08:20:41;;;;;;;10.00;5.70;;;;;;;7.69;100.00;100746.97;5024663;28;20576;-73
2022/11/05 08:23:08;;;;;;;13.03;5.97;;;;;;;7.81;100.00;100753.75;5020142;28;20204;-73
2022/11/05 08:25:34;;;;;;;11.87;6.43;;;;;;;7.87;100.00;100751.06;5009142;28;20557;-73
2022/11/05 08:28:03;;;;;;;15.07;6.97;;;;;;;7.83;100.00;100754.59;5011608;28;20880;-72
2022/11/05 08:30:31;;;;;;;21.13;6.13;;;;;;;7.81;100.00;100765.84;5009480;28;20198;-73
2022/11/05 08:32:59;;;;;;;19.07;5.73;;;;;;;7.85;100.00;100754.56;5011239;28;20277;-73
2022/11/05 08:35:27;;;;;;;13.13;6.57;;;;;;;7.95;100.00;100763.97;5010432;28;20207;-73
2022/11/05 08:37:56;;;;;;;10.50;6.40;;;;;;;7.97;100.00;100770.84;5010860;28;20204;-73
2022/11/05 08:40:22;;;;;;;24.07;6.73;;;;;;;8.02;100.00;100768.19;5008893;28;20573;-73
2022/11/05 08:42:49;;;;;;;12.10;6.20;;;;;;;8.03;100.00;100776.84;5012155;28;20204;-73
2022/11/05 08:45:15;;;;;;;11.83;6.70;;;;;;;8.10;100.00;100771.53;5026925;28;20205;-73
2022/11/05 08:47:42;;;;;;;10.23;5.77;;;;;;;8.11;100.00;100773.25;5012273;28;20216;-73
2022/11/05 08:50:09;;;;;;;10.00;5.27;;;;;;;8.07;100.00;100781.97;5015416;28;20224;-73
2022/11/05 08:52:39;;;;;;;9.60;5.97;;;;;;;8.07;100.00;100783.69;5013176;28;20211;-73
2022/11/05 08:55:06;;;;;;;11.57;6.37;;;;;;;8.11;100.00;100782.78;5011320;28;20215;-74
2022/11/05 08:57:33;;;;;;;10.67;5.73;;;;;;;8.07;100.00;100787.19;5019209;28;20207;-72
2022/11/05 09:00:06;;;;;;;10.33;5.80;;;;;;;8.08;100.00;100788.88;5039459;22;20315;-74
2022/11/05 09:02:44;;;;;;;15.40;6.17;;;;;;;8.02;100.00;100788.09;4993875;28;20220;-75
2022/11/05 09:05:12;;;;;;;11.30;5.73;;;;;;;8.04;100.00;100783.72;5008120;28;20564;-73
2022/11/05 09:07:41;;;;;;;10.30;5.27;;;;;;;8.06;100.00;100785.44;5005305;28;20752;-74
2022/11/05 09:10:09;;;;;;;9.40;5.30;;;;;;;8.06;100.00;100797.56;4997055;28;20220;-74
2022/11/05 09:12:36;;;;;;;10.80;5.30;;;;;;;8.15;100.00;100800.03;4991729;28;20207;-73
2022/11/05 09:15:03;;;;;;;7.00;5.27;;;;;;;8.21;100.00;100806.88;4996194;28;20333;-75
2022/11/05 09:17:30;;;;;;;10.37;5.30;;;;;;;8.32;100.00;100815.41;4996568;28;20208;-73
2022/11/05 09:19:57;;;;;;;10.23;5.70;;;;;;;8.41;100.00;100807.47;4992712;28;20306;-73
2022/11/05 09:22:24;;;;;;;14.67;6.30;;;;;;;8.53;100.00;100806.47;4994886;28;20200;-74
2022/11/05 09:24:52;;;;;;;12.57;6.57;;;;;;;8.61;100.00;100809.81;4994871;28;20242;-73
2022/11/05 09:27:19;;;;;;;16.50;6.50;;;;;;;8.69;100.00;100810.56;4986179;28;20212;-74
2022/11/05 09:29:46;;;;;;;13.77;5.57;;;;;;;8.68;100.00;100821.81;4993449;28;20236;-74
2022/11/05 09:32:17;;;;;;;12.17;6.50;;;;;;;8.77;100.00;100826.03;5008676;28;20729;-74
2022/11/05 09:34:44;;;;;;;11.10;5.53;;;;;;;8.90;100.00;100829.31;4996014;28;20232;-73
2022/11/05 09:37:11;;;;;;;12.87;5.37;;;;;;;9.02;100.00;100828.25;5006650;28;20200;-74
2022/11/05 09:39:39;;;;;;;12.80;6.03;;;;;;;8.98;100.00;100832.63;4994826;28;20234;-73
2022/11/05 09:42:09;;;;;;;9.47;6.17;;;;;;;9.05;100.00;100836.84;4991431;28;20297;-75
2022/11/05 09:44:42;;;;;;;13.07;5.80;;;;;;;8.95;100.00;100834.44;4991487;28;20659;-73
2022/11/05 09:47:14;;;;;;;17.00;6.10;;;;;;;8.90;100.00;100830.16;5012984;28;20192;-74
2022/11/05 09:49:46;;;;;;;11.60;5.33;;;;;;;8.94;100.00;100836.19;5012749;28;20216;-73
2022/11/05 09:52:25;;;;;;;13.80;5.83;;;;;;;9.06;100.00;100835.13;4998536;28;20205;-74
2022/11/05 09:54:54;;;;;;;15.83;5.67;;;;;;;9.13;100.00;100838.47;5011716;28;20665;-74
2022/11/05 09:57:26;;;;;;;10.43;5.43;;;;;;;9.15;100.00;100842.78;4992716;28;20204;-75
2022/11/05 09:59:57;;;;;;;15.40;6.63;;;;;;;9.19;100.00;100841.81;4993303;28;20229;-73
2022/11/05 10:02:28;;;;;;;16.33;6.10;;;;;;;9.16;100.00;100838.41;5013309;28;20215;-73
2022/11/05 10:05:00;;;;;;;11.83;5.13;;;;;;;9.14;100.00;100843.66;5003536;28;20202;-73
2022/11/05 10:07:35;;;;;;;8.77;5.17;;;;;;;9.21;100.00;100850.47;5013744;28;20209;-73
2022/11/05 10:10:04;;;;;;;11.00;5.27;;;;;;;9.32;100.00;100852.03;4998090;28;20216;-73
2022/11/05 10:12:39;;;;;;;16.87;6.40;;;;;;;9.47;100.00;100852.59;5013035;28;20628;-74
2022/11/05 10:15:12;;;;;;;12.73;6.40;;;;;;;9.57;100.00;100865.44;5012789;28;20197;-74
2022/11/05 10:17:44;;;;;;;12.20;5.50;;;;;;;9.59;100.00;100867.16;5019708;28;20240;-75
2022/11/05 10:20:19;;;;;;;11.63;5.30;;;;;;;9.64;100.00;100870.53;5011366;28;20218;-75
2022/11/05 10:22:46;;;;;;;13.67;6.00;;;;;;;9.71;100.00;100867.81;5001516;28;20200;-75
2022/11/05 10:25:18;;;;;;;13.27;6.17;;;;;;;9.68;100.00;100873.09;4997323;28;20254;-74
2022/11/05 10:27:50;;;;;;;8.97;5.00;;;;;;;9.73;100.00;100879.94;4989938;28;20212;-75
2022/11/05 10:30:17;;;;;;;14.60;5.17;;;;;;;9.73;100.00;100873.88;4999968;28;20224;-73
2022/11/05 10:32:46;;;;;;;16.27;5.20;;;;;;;9.82;100.00;100871.94;5014106;28;21303;-75
2022/11/05 10:35:17;;;;;;;22.80;5.87;;;;;;;9.84;100.00;100877.13;4998751;28;20210;-75
2022/11/05 10:37:45;;;;;;;13.53;5.30;;;;;;;9.83;100.00;100881.47;5003432;28;20239;-75
2022/11/05 10:40:39;;;;;;;14.40;5.63;;;;;;;9.84;100.00;100882.31;5015644;28;20232;-75
2022/11/05 10:43:13;;;;;;;15.20;4.47;;;;;;;9.66;100.00;100891.34;5014749;28;20202;-74
2022/11/05 10:45:50;;;;;;;16.37;5.60;;;;;;;9.56;100.00;100898.44;4995447;28;20211;-73
2022/11/05 10:48:31;;;;;;;11.60;4.67;;;;;;;9.53;100.00;100898.50;5008532;28;20260;-75
2022/11/05 10:50:58;;;;;;;12.40;4.37;;;;;;;9.67;100.00;100893.03;5006851;28;20293;-75
2022/11/05 10:53:29;;;;;;;14.40;5.17;;;;;;;9.78;100.00;100900.66;4992961;28;20204;-74
2022/11/05 10:55:57;;;;;;;13.43;5.47;;;;;;;9.91;100.00;100898.69;5015709;28;20205;-74
2022/11/05 10:58:28;;;;;;;15.93;5.57;;;;;;;10.05;100.00;100902.75;5011772;28;20221;-75
2022/11/05 11:01:06;;;;;;;13.33;5.87;;;;;;;10.28;100.00;100906.63;5010983;28;20198;-75
2022/11/05 11:03:41;;;;;;;11.57;4.83;;;;;;;10.44;100.00;100902.00;4997275;28;20201;-74
2022/11/05 11:06:19;;;;;;;12.90;5.40;;;;;;;10.40;100.00;100913.38;5011093;28;20211;-74
2022/11/05 11:08:48;;;;;;;19.47;5.67;;;;;;;10.42;100.00;100902.03;5012370;28;20247;-74
2022/11/05 11:11:27;;;;;;;10.50;5.70;;;;;;;10.37;100.00;100914.28;5014849;28;20318;-73
2022/11/05 11:14:03;;;;;;;16.30;5.63;;;;;;;10.34;100.00;100903.06;4994149;28;20208;-72
2022/11/05 11:16:35;;;;;;;10.53;5.00;;;;;;;10.42;100.00;100903.78;4990408;28;20264;-74
2022/11/05 11:19:20;;;;;;;11.57;4.70;;;;;;;10.51;100.00;100907.94;4992244;28;20290;-74
2022/11/05 11:22:08;;;;;;;11.40;5.40;;;;;;;10.57;100.00;100907.78;4994553;28;20572;-73
2022/11/05 11:24:38;;;;;;;19.93;6.17;;;;;;;10.67;100.00;100909.31;4995068;28;20203;-74
2022/11/05 11:27:09;;;;;;;14.47;5.37;;;;;;;10.70;100.00;100909.25;5015660;28;20574;-73
2022/11/05 11:29:39;;;;;;;16.53;6.20;;;;;;;10.71;100.00;100911.00;5005910;28;20230;-73
2022/11/05 11:32:13;;;;;;;13.03;5.13;;;;;;;10.74;100.00;100916.13;5007706;28;20223;-74
2022/11/05 11:34:41;;;;;;;8.90;4.37;;;;;;;10.77;100.00;100918.66;4992691;28;20241;-74
2022/11/05 11:37:09;;;;;;;9.03;3.87;;;;;;;10.67;100.00;100930.19;4996091;28;20210;-73
2022/11/05 11:39:38;;;;;;;7.97;3.20;;;;;;;10.40;100.00;100932.47;4995386;28;20753;-73
2022/11/05 11:42:13;;;;;;;6.00;2.90;;;;;;;10.22;100.00;100923.25;4992563;28;20582;-74
2022/11/05 11:44:44;;;;;;;4.13;2.20;;;;;;;10.13;100.00;100920.84;5010319;28;20509;-75
2022/11/05 11:47:14;;;;;;;3.40;2.27;;;;;;;9.98;100.00;100916.78;5007405;28;20293;-74
2022/11/05 11:49:45;;;;;;;5.77;2.40;;;;;;;9.97;100.00;100916.81;4987594;28;20225;-74
2022/11/05 11:52:14;;;;;;;4.30;2.10;;;;;;;9.91;100.00;100923.00;4995951;28;20210;-75
2022/11/05 11:54:41;;;;;;;4.20;2.23;;;;;;;9.95;100.00;100929.00;4997961;28;20222;-74
2022/11/05 11:57:21;;;;;;;7.27;2.57;;;;;;;10.02;100.00;100925.38;5005664;28;20203;-74
2022/11/05 11:59:49;;;;;;;7.43;2.50;;;;;;;10.09;100.00;100919.16;4990377;28;20608;-74
2022/11/05 12:02:37;;;;;;;3.40;1.83;;;;;;;10.15;100.00;100913.84;5008231;28;20273;-74
2022/11/05 12:05:17;;;;;;;5.53;2.50;;;;;;;10.22;100.00;100906.78;5008349;28;20582;-74
2022/11/05 12:07:51;;;;;;;4.30;2.20;;;;;;;10.11;100.00;100919.13;4995784;28;20201;-74
2022/11/05 12:10:28;;;;;;;8.03;2.40;;;;;;;9.86;100.00;100927.41;5004576;28;20279;-74
2022/11/05 12:13:13;;;;;;;5.20;2.00;;;;;;;9.70;100.00;100934.66;4991285;28;20276;-74